createdAt,value
2019-05-16T00:00:55.731Z,10.10
2019-05-16T00:03:22.572Z,10.00
2019-05-16T00:05:54.225Z,10.00
2019-05-16T00:08:18.030Z,9.90
2019-05-16T00:11:08.587Z,10.00
2019-05-16T00:13:35.651Z,9.90
2019-05-16T00:16:02.684Z,9.90
2019-05-16T00:18:29.509Z,9.90
2019-05-16T00:20:58.483Z,9.90
2019-05-16T00:23:25.067Z,9.90
2019-05-16T00:25:51.903Z,9.90
2019-05-16T00:28:18.828Z,9.80
2019-05-16T00:30:48.499Z,9.80
2019-05-16T00:33:14.448Z,9.80
2019-05-16T00:35:41.506Z,9.70
2019-05-16T00:38:09.254Z,9.80
2019-05-16T00:40:38.046Z,9.70
2019-05-16T00:43:04.902Z,9.60
2019-05-16T00:45:31.823Z,9.60
2019-05-16T00:47:58.729Z,9.60
2019-05-16T00:50:25.698Z,9.60
2019-05-16T00:52:52.538Z,9.50
2019-05-16T00:55:19.355Z,9.50
2019-05-16T00:57:48.127Z,9.50
2019-05-16T01:00:15.243Z,9.50
2019-05-16T01:02:42.198Z,9.40
2019-05-16T01:05:09.125Z,9.30
2019-05-16T01:07:35.955Z,9.30
2019-05-16T01:10:04.004Z,9.30
2019-05-16T01:12:32.373Z,9.30
2019-05-16T01:14:59.317Z,9.20
2019-05-16T01:17:28.179Z,9.20
2019-05-16T01:19:54.771Z,9.20
2019-05-16T01:22:21.689Z,9.10
2019-05-16T01:24:49.289Z,9.10
2019-05-16T01:27:18.493Z,9.10
2019-05-16T01:29:47.741Z,9.10
2019-05-16T01:32:15.003Z,9.10
2019-05-16T01:34:41.991Z,9.00
2019-05-16T01:37:08.907Z,9.00
2019-05-16T01:39:38.020Z,9.00
2019-05-16T01:42:04.628Z,8.90
2019-05-16T01:44:32.539Z,8.90
2019-05-16T01:46:59.486Z,8.90
2019-05-16T01:49:27.995Z,8.80
2019-05-16T01:51:55.074Z,8.80
2019-05-16T01:54:22.034Z,8.80
2019-05-16T01:56:48.987Z,8.80
2019-05-16T01:59:18.011Z,8.80
2019-05-16T02:01:44.655Z,8.80
2019-05-16T02:04:12.491Z,8.80
2019-05-16T02:06:50.900Z,8.80
2019-05-16T02:09:11.234Z,8.80
2019-05-16T02:11:38.723Z,8.80
2019-05-16T02:14:05.463Z,8.70
2019-05-16T02:16:32.291Z,8.70
2019-05-16T02:18:59.136Z,8.70
2019-05-16T02:21:25.973Z,8.70
2019-05-16T02:23:53.415Z,8.70
2019-05-16T02:26:20.240Z,8.80
2019-05-16T02:28:47.183Z,8.80
2019-05-16T02:31:15.513Z,8.80
2019-05-16T02:33:42.748Z,8.80
2019-05-16T02:36:11.015Z,8.80
2019-05-16T02:38:38.203Z,8.80
2019-05-16T02:41:05.150Z,8.80
2019-05-16T02:43:32.095Z,8.80
2019-05-16T02:46:01.261Z,8.80
2019-05-16T02:48:27.775Z,8.80
2019-05-16T02:50:54.632Z,8.80
2019-05-16T02:53:22.211Z,8.90
2019-05-16T02:55:51.617Z,8.90
2019-05-16T02:58:22.829Z,8.90
2019-05-16T03:00:46.948Z,8.90
2019-05-16T03:03:13.867Z,9.00
2019-05-16T03:05:41.852Z,8.90
2019-05-16T03:08:12.103Z,9.00
2019-05-16T03:10:41.036Z,8.90
2019-05-16T03:13:06.546Z,9.00
2019-05-16T03:15:33.401Z,9.00
2019-05-16T03:18:03.819Z,8.90
2019-05-16T03:20:32.593Z,9.00
2019-05-16T03:23:02.265Z,9.00
2019-05-16T03:25:31.019Z,9.00
2019-05-16T03:27:57.044Z,9.00
2019-05-16T03:30:24.267Z,9.10
2019-05-16T03:32:54.855Z,9.10
2019-05-16T03:35:24.602Z,9.20
2019-05-16T03:37:55.789Z,9.20
2019-05-16T03:40:25.468Z,9.20
2019-05-16T03:42:52.429Z,9.30
2019-05-16T03:45:21.202Z,9.30
2019-05-16T03:47:50.834Z,9.30
2019-05-16T03:50:16.616Z,9.50
2019-05-16T03:52:44.065Z,9.50
2019-05-16T03:55:11.688Z,9.60
2019-05-16T03:57:41.642Z,9.70
2019-05-16T04:00:51.276Z,9.90
2019-05-16T04:03:16.200Z,10.00
2019-05-16T04:05:43.168Z,10.10
2019-05-16T04:08:18.752Z,10.20
2019-05-16T04:10:40.928Z,10.50
2019-05-16T04:13:07.359Z,10.60
2019-05-16T04:15:34.192Z,10.60
2019-05-16T04:18:01.609Z,10.90
2019-05-16T04:20:30.429Z,10.90
2019-05-16T04:23:00.921Z,11.10
2019-05-16T04:25:26.147Z,11.20
2019-05-16T04:27:52.959Z,11.20
2019-05-16T04:30:22.013Z,11.40
2019-05-16T04:32:50.964Z,11.40
2019-05-16T04:35:17.163Z,11.60
2019-05-16T04:37:44.105Z,11.60
2019-05-16T04:40:12.124Z,11.70
2019-05-16T04:42:41.728Z,12.00
2019-05-16T04:45:11.510Z,12.10
2019-05-16T04:47:36.931Z,12.10
2019-05-16T04:50:05.084Z,12.20
2019-05-16T04:52:31.891Z,12.40
2019-05-16T04:55:00.721Z,12.60
2019-05-16T04:57:27.607Z,12.70
2019-05-16T04:59:54.523Z,12.80
2019-05-16T05:02:21.559Z,12.90
2019-05-16T05:04:50.953Z,13.00
2019-05-16T05:07:20.373Z,13.00
2019-05-16T05:09:45.772Z,13.20
2019-05-16T05:12:12.724Z,13.30
2019-05-16T05:14:41.547Z,13.30
2019-05-16T05:17:10.695Z,13.50
2019-05-16T05:19:37.043Z,13.60
2019-05-16T05:22:03.971Z,13.90
2019-05-16T05:24:30.924Z,13.70
2019-05-16T05:26:59.669Z,13.90
2019-05-16T05:29:46.111Z,14.00
2019-05-16T05:32:14.274Z,14.10
2019-05-16T05:34:41.532Z,14.30
2019-05-16T05:37:12.258Z,14.50
2019-05-16T05:39:37.099Z,15.00
2019-05-16T05:42:04.007Z,15.20
2019-05-16T05:44:30.964Z,15.30
2019-05-16T05:47:00.550Z,14.60
2019-05-16T05:49:27.039Z,14.70
2019-05-16T05:51:53.991Z,14.90
2019-05-16T05:54:20.938Z,15.10
2019-05-16T05:56:50.050Z,15.10
2019-05-16T05:59:16.516Z,15.20
2019-05-16T06:01:43.849Z,15.20
2019-05-16T06:04:11.348Z,15.20
2019-05-16T06:06:41.063Z,15.40
2019-05-16T06:09:06.889Z,15.50
2019-05-16T06:11:33.839Z,15.50
2019-05-16T06:14:03.124Z,15.70
2019-05-16T06:16:30.835Z,15.80
2019-05-16T06:18:58.099Z,15.90
2019-05-16T06:21:25.517Z,15.90
2019-05-16T06:23:52.508Z,15.90
2019-05-16T06:26:20.355Z,16.20
2019-05-16T06:28:50.234Z,16.00
2019-05-16T06:31:16.437Z,16.10
2019-05-16T06:33:43.291Z,16.30
2019-05-16T06:36:11.053Z,16.40
2019-05-16T06:38:40.554Z,16.40
2019-05-16T06:41:07.787Z,16.50
2019-05-16T06:43:34.934Z,16.50
2019-05-16T06:46:01.893Z,16.50
2019-05-16T06:48:30.382Z,16.40
2019-05-16T06:51:02.523Z,16.60
2019-05-16T06:53:26.218Z,16.50
2019-05-16T06:55:53.044Z,16.70
2019-05-16T06:58:22.161Z,16.80
2019-05-16T07:00:51.980Z,17.10
2019-05-16T07:03:37.225Z,16.80
2019-05-16T07:06:04.179Z,16.70
2019-05-16T07:08:31.346Z,17.00
2019-05-16T07:10:59.963Z,17.20
2019-05-16T07:13:27.147Z,17.10
2019-05-16T07:15:53.999Z,17.10
2019-05-16T07:18:22.039Z,17.20
2019-05-16T07:20:50.987Z,17.20
2019-05-16T07:23:17.626Z,17.00
2019-05-16T07:25:44.587Z,17.40
2019-05-16T07:28:11.506Z,17.40
2019-05-16T07:30:40.696Z,17.60
2019-05-16T07:33:07.010Z,17.60
2019-05-16T07:35:33.860Z,17.90
2019-05-16T07:38:00.807Z,18.10
2019-05-16T07:40:27.769Z,18.20
2019-05-16T07:42:54.933Z,18.00
2019-05-16T07:45:21.747Z,18.00
2019-05-16T07:47:50.984Z,17.80
2019-05-16T07:50:19.970Z,17.60
2019-05-16T07:52:45.996Z,17.60
2019-05-16T07:55:13.067Z,17.80
2019-05-16T07:57:59.702Z,17.70
2019-05-16T08:00:45.730Z,17.50
2019-05-16T08:02:55.376Z,17.50
2019-05-16T08:05:22.306Z,17.70
2019-05-16T08:07:51.195Z,17.60
2019-05-16T08:10:35.915Z,18.00
2019-05-16T08:12:51.079Z,18.30
2019-05-16T08:15:17.123Z,18.40
2019-05-16T08:17:44.613Z,18.60
2019-05-16T08:20:11.669Z,18.50
2019-05-16T08:22:41.302Z,18.20
2019-05-16T08:25:07.422Z,18.10
2019-05-16T08:27:54.211Z,18.40
2019-05-16T08:30:21.317Z,18.50
2019-05-16T08:32:51.987Z,18.60
2019-05-16T08:35:17.068Z,18.60
2019-05-16T08:37:46.999Z,18.40
2019-05-16T08:40:12.636Z,18.80
2019-05-16T08:42:41.565Z,19.10
2019-05-16T08:45:11.990Z,19.40
2019-05-16T08:47:37.014Z,18.90
2019-05-16T08:50:13.705Z,18.70
2019-05-16T08:52:35.492Z,18.40
2019-05-16T08:55:06.999Z,18.40
2019-05-16T08:57:33.950Z,18.30
2019-05-16T09:00:01.565Z,18.40
2019-05-16T09:02:36.299Z,18.60
2019-05-16T09:04:57.736Z,18.80
2019-05-16T09:07:24.571Z,18.90
2019-05-16T09:09:52.178Z,18.50
2019-05-16T09:12:19.271Z,18.50
2019-05-16T09:14:48.009Z,18.40
2019-05-16T09:17:17.569Z,18.20
2019-05-16T09:19:43.515Z,18.20
2019-05-16T09:22:10.450Z,18.30
2019-05-16T09:24:39.903Z,18.40
2019-05-16T09:27:12.200Z,18.70
2019-05-16T09:29:36.639Z,19.00
2019-05-16T09:32:12.720Z,19.10
2019-05-16T09:34:32.657Z,19.30
2019-05-16T09:37:01.825Z,19.40
2019-05-16T09:39:29.020Z,19.70
2019-05-16T09:41:58.588Z,19.70
2019-05-16T09:44:27.208Z,20.00
2019-05-16T09:46:53.592Z,20.50
2019-05-16T09:49:24.843Z,20.50
2019-05-16T09:51:49.243Z,20.10
2019-05-16T09:54:16.798Z,20.10
2019-05-16T09:56:46.302Z,19.80
2019-05-16T09:59:12.780Z,19.50
2019-05-16T10:01:40.073Z,19.30
2019-05-16T10:04:07.566Z,19.30
2019-05-16T10:06:36.924Z,19.30
2019-05-16T10:09:06.457Z,19.70
2019-05-16T10:11:33.485Z,19.80
2019-05-16T10:14:00.411Z,19.90
2019-05-16T10:16:27.608Z,20.10
2019-05-16T10:18:56.742Z,20.30
2019-05-16T10:21:23.540Z,20.10
2019-05-16T10:23:50.471Z,20.10
2019-05-16T10:26:19.494Z,20.30
2019-05-16T10:28:46.777Z,20.00
2019-05-16T10:31:13.996Z,20.20
2019-05-16T10:33:40.847Z,20.40
2019-05-16T10:36:08.378Z,20.50
2019-05-16T10:38:37.426Z,20.50
2019-05-16T10:41:04.601Z,20.00
2019-05-16T10:43:31.442Z,20.10
2019-05-16T10:45:58.265Z,20.10
2019-05-16T10:48:26.994Z,20.50
2019-05-16T10:50:53.958Z,20.80
2019-05-16T10:53:51.444Z,20.30
2019-05-16T10:55:49.944Z,20.50
2019-05-16T10:58:33.016Z,20.90
2019-05-16T11:01:07.605Z,21.00
2019-05-16T11:03:37.883Z,20.90
2019-05-16T11:06:17.457Z,21.00
2019-05-16T11:08:37.223Z,21.10
2019-05-16T11:11:06.669Z,20.80
2019-05-16T11:13:33.743Z,20.70
2019-05-16T11:16:00.683Z,20.80
2019-05-16T11:18:27.563Z,20.70
2019-05-16T11:20:57.996Z,20.60
2019-05-16T11:23:24.479Z,20.30
2019-05-16T11:25:55.306Z,20.20
2019-05-16T11:28:21.521Z,20.30
2019-05-16T11:30:49.888Z,20.50
2019-05-16T11:33:17.589Z,20.60
2019-05-16T11:35:47.320Z,20.60
2019-05-16T11:38:13.523Z,20.30
2019-05-16T11:40:40.448Z,20.10
2019-05-16T11:43:17.460Z,20.30
2019-05-16T11:45:36.786Z,20.60
2019-05-16T11:48:05.257Z,20.40
2019-05-16T11:50:32.089Z,20.00
2019-05-16T11:52:59.049Z,19.80
2019-05-16T11:55:32.475Z,19.70
2019-05-16T11:57:56.763Z,19.70
2019-05-16T12:00:23.504Z,19.30
2019-05-16T12:02:50.448Z,19.10
2019-05-16T12:05:17.456Z,19.10
2019-05-16T12:07:47.869Z,19.00
2019-05-16T12:10:12.924Z,18.90
2019-05-16T12:12:39.763Z,19.10
2019-05-16T12:15:07.824Z,19.10
2019-05-16T12:17:35.227Z,19.10
2019-05-16T12:20:02.192Z,19.10
2019-05-16T12:22:30.127Z,19.10
2019-05-16T12:24:57.496Z,19.10
2019-05-16T12:27:32.044Z,19.20
2019-05-16T12:29:57.252Z,19.40
2019-05-16T12:32:22.106Z,19.50
2019-05-16T12:34:49.046Z,19.60
2019-05-16T12:37:15.867Z,19.50
2019-05-16T12:39:42.792Z,19.60
2019-05-16T12:42:09.655Z,19.70
2019-05-16T12:44:37.360Z,20.00
2019-05-16T12:47:04.374Z,20.10
2019-05-16T12:49:31.207Z,20.20
2019-05-16T12:51:58.149Z,20.00
2019-05-16T12:54:27.468Z,20.20
2019-05-16T12:56:53.850Z,20.20
2019-05-16T12:59:21.597Z,20.30
2019-05-16T13:01:48.913Z,20.40
2019-05-16T13:04:18.903Z,20.40
2019-05-16T13:06:46.948Z,20.30
2019-05-16T13:09:13.223Z,20.40
2019-05-16T13:11:40.067Z,20.30
2019-05-16T13:14:10.942Z,20.20
2019-05-16T13:16:37.561Z,20.30
2019-05-16T13:19:06.830Z,20.40
2019-05-16T13:21:33.298Z,20.40
2019-05-16T13:24:00.101Z,20.20
2019-05-16T13:26:27.057Z,20.30
2019-05-16T13:28:53.873Z,20.30
2019-05-16T13:31:40.451Z,20.40
2019-05-16T13:34:07.537Z,20.40
2019-05-16T13:36:34.667Z,20.60
2019-05-16T13:39:01.502Z,20.60
2019-05-16T13:41:30.128Z,20.60
2019-05-16T13:43:56.976Z,20.80
2019-05-16T13:46:23.788Z,20.70
2019-05-16T13:48:50.631Z,20.60
2019-05-16T13:51:19.042Z,20.30
2019-05-16T13:53:47.165Z,20.30
2019-05-16T13:56:17.340Z,20.30
2019-05-16T13:58:43.104Z,20.50
2019-05-16T14:01:10.091Z,20.50
2019-05-16T14:03:37.530Z,20.50
2019-05-16T14:06:06.982Z,20.60
2019-05-16T14:08:33.322Z,20.60
2019-05-16T14:11:02.137Z,20.40
2019-05-16T14:13:28.992Z,20.40
2019-05-16T14:15:55.820Z,20.40
2019-05-16T14:18:22.642Z,20.30
2019-05-16T14:20:49.584Z,20.30
2019-05-16T14:23:17.593Z,20.30
2019-05-16T14:25:48.171Z,20.30
2019-05-16T14:28:13.716Z,20.30
2019-05-16T14:30:40.646Z,20.20
2019-05-16T14:33:20.955Z,20.20
2019-05-16T14:35:47.809Z,20.10
2019-05-16T14:38:17.309Z,20.10
2019-05-16T14:40:46.639Z,20.10
2019-05-16T14:43:13.106Z,20.20
2019-05-16T14:45:39.942Z,20.30
2019-05-16T14:48:07.707Z,20.30
2019-05-16T14:50:37.439Z,20.20
2019-05-16T14:53:03.765Z,20.20
2019-05-16T14:55:30.604Z,20.20
2019-05-16T14:57:58.595Z,20.20
2019-05-16T15:00:27.656Z,20.30
2019-05-16T15:02:56.648Z,20.40
2019-05-16T15:05:25.685Z,20.40
2019-05-16T15:07:52.866Z,20.40
2019-05-16T15:10:20.115Z,20.50
2019-05-16T15:12:47.126Z,20.50
2019-05-16T15:15:21.161Z,20.30
2019-05-16T15:17:47.209Z,20.20
2019-05-16T15:20:13.283Z,20.20
2019-05-16T15:22:40.135Z,20.20
2019-05-16T15:25:08.006Z,20.20
2019-05-16T15:27:37.173Z,20.20
2019-05-16T15:30:09.039Z,20.10
2019-05-16T15:32:38.571Z,20.00
2019-05-16T15:35:07.513Z,20.00
2019-05-16T15:37:33.856Z,19.90
2019-05-16T15:40:02.301Z,19.90
2019-05-16T15:42:30.335Z,20.00
2019-05-16T15:44:57.368Z,20.10
2019-05-16T15:47:27.817Z,20.10
2019-05-16T15:49:56.653Z,19.90
2019-05-16T15:52:27.255Z,19.90
2019-05-16T15:54:53.177Z,19.90
2019-05-16T15:57:20.126Z,20.00
2019-05-16T15:59:53.230Z,19.90
2019-05-16T16:02:17.795Z,19.80
2019-05-16T16:04:47.583Z,19.80
2019-05-16T16:07:14.459Z,19.70
2019-05-16T16:09:41.523Z,19.60
2019-05-16T16:12:10.801Z,19.50
2019-05-16T16:14:37.264Z,19.50
2019-05-16T16:17:06.554Z,19.60
2019-05-16T16:19:46.959Z,19.50
2019-05-16T16:22:14.372Z,19.50
2019-05-16T16:24:41.308Z,19.50
2019-05-16T16:27:08.251Z,19.50
2019-05-16T16:29:36.704Z,19.40
2019-05-16T16:32:03.743Z,19.30
2019-05-16T16:34:30.683Z,19.30
2019-05-16T16:36:57.663Z,19.20
2019-05-16T16:39:26.846Z,19.10
2019-05-16T16:41:53.823Z,19.10
2019-05-16T16:44:20.635Z,19.00
2019-05-16T16:46:47.484Z,19.00
2019-05-16T16:49:17.085Z,18.90
2019-05-16T16:51:43.158Z,18.90
2019-05-16T16:54:10.096Z,18.70
2019-05-16T16:56:50.132Z,18.70
2019-05-16T16:59:17.398Z,18.60
2019-05-16T17:01:46.508Z,18.60
2019-05-16T17:04:13.587Z,18.50
2019-05-16T17:06:40.410Z,18.50
2019-05-16T17:09:07.613Z,18.40
2019-05-16T17:11:38.744Z,18.40
2019-05-16T17:14:06.925Z,18.30
2019-05-16T17:16:33.998Z,18.30
2019-05-16T17:19:00.848Z,18.20
2019-05-16T17:21:27.900Z,18.20
2019-05-16T17:23:56.824Z,18.20
2019-05-16T17:26:23.581Z,18.10
2019-05-16T17:28:50.635Z,18.10
2019-05-16T17:31:17.540Z,18.00
2019-05-16T17:33:45.539Z,18.00
2019-05-16T17:36:12.519Z,18.00
2019-05-16T17:38:39.464Z,18.00
2019-05-16T17:41:07.619Z,17.90
2019-05-16T17:43:36.380Z,17.90
2019-05-16T17:46:03.194Z,17.80
2019-05-16T17:48:30.231Z,17.80
2019-05-16T17:50:57.183Z,17.80
2019-05-16T17:53:26.525Z,17.80
2019-05-16T17:55:53.596Z,17.80
2019-05-16T17:58:20.681Z,17.70
2019-05-16T18:00:47.652Z,17.70
2019-05-16T18:03:17.374Z,17.60
2019-05-16T18:05:44.484Z,17.60
2019-05-16T18:08:11.452Z,17.60
2019-05-16T18:10:38.400Z,17.50
2019-05-16T18:13:07.828Z,17.40
2019-05-16T18:15:36.712Z,17.40
2019-05-16T18:18:04.154Z,17.30
2019-05-16T18:20:31.083Z,17.30
2019-05-16T18:22:58.034Z,17.20
2019-05-16T18:25:26.819Z,17.20
2019-05-16T18:27:54.922Z,17.10
2019-05-16T18:30:22.760Z,17.00
2019-05-16T18:32:50.515Z,17.00
2019-05-16T18:35:30.144Z,16.90
2019-05-16T18:37:57.654Z,16.80
2019-05-16T18:40:27.008Z,16.70
2019-05-16T18:42:53.311Z,16.70
2019-05-16T18:45:20.267Z,16.70
2019-05-16T18:47:47.223Z,16.60
2019-05-16T18:50:17.828Z,16.50
2019-05-16T18:52:43.510Z,16.40
2019-05-16T18:55:11.758Z,16.30
2019-05-16T18:57:38.604Z,16.20
2019-05-16T19:00:10.548Z,16.10
2019-05-16T19:02:36.855Z,16.10
2019-05-16T19:05:06.774Z,16.00
2019-05-16T19:07:33.214Z,15.90
2019-05-16T19:10:00.064Z,15.80
2019-05-16T19:12:26.980Z,15.80
2019-05-16T19:14:54.290Z,15.60
2019-05-16T19:17:24.775Z,15.50
2019-05-16T19:19:49.970Z,15.40
2019-05-16T19:22:17.132Z,15.30
2019-05-16T19:24:46.389Z,15.30
2019-05-16T19:27:13.170Z,15.30
2019-05-16T19:29:40.168Z,15.30
2019-05-16T19:32:06.988Z,15.20
2019-05-16T19:34:33.841Z,15.20
2019-05-16T19:37:00.663Z,15.10
2019-05-16T19:39:28.804Z,15.10
2019-05-16T19:41:57.240Z,15.00
2019-05-16T19:44:24.564Z,15.00
2019-05-16T19:46:51.400Z,15.00
2019-05-16T19:49:18.452Z,15.00
2019-05-16T19:51:48.539Z,15.00
2019-05-16T19:54:16.363Z,15.00
2019-05-16T19:56:43.647Z,14.90
2019-05-16T19:59:10.617Z,14.90
2019-05-16T20:01:37.464Z,14.90
2019-05-16T20:04:04.885Z,14.90
2019-05-16T20:06:31.909Z,14.90
2019-05-16T20:08:59.010Z,14.90
2019-05-16T20:11:27.610Z,14.90
2019-05-16T20:13:56.750Z,14.90
2019-05-16T20:16:23.814Z,14.90
2019-05-16T20:18:51.965Z,14.90
2019-05-16T20:21:18.832Z,14.80
2019-05-16T20:23:47.303Z,14.80
2019-05-16T20:26:16.718Z,14.70
2019-05-16T20:28:43.355Z,14.60
2019-05-16T20:31:10.402Z,14.60
2019-05-16T20:33:37.656Z,14.50
2019-05-16T20:36:26.438Z,14.50
2019-05-16T20:38:56.729Z,14.40
2019-05-16T20:41:23.551Z,14.40
2019-05-16T20:43:50.597Z,14.40
2019-05-16T20:46:19.610Z,14.40
2019-05-16T20:48:46.624Z,14.40
2019-05-16T20:51:13.548Z,14.40
2019-05-16T20:53:41.424Z,14.40
2019-05-16T20:56:08.243Z,14.40
2019-05-16T20:58:35.264Z,14.30
2019-05-16T21:01:02.355Z,14.30
2019-05-16T21:03:29.407Z,14.40
2019-05-16T21:05:58.179Z,14.40
2019-05-16T21:08:26.575Z,14.40
2019-05-16T21:10:53.719Z,14.30
2019-05-16T21:13:20.741Z,14.30
2019-05-16T21:15:47.890Z,14.20
2019-05-16T21:18:16.616Z,14.10
2019-05-16T21:20:47.102Z,14.10
2019-05-16T21:23:19.099Z,14.00
2019-05-16T21:25:46.371Z,14.00
2019-05-16T21:28:13.183Z,14.00
2019-05-16T21:30:40.322Z,14.00
2019-05-16T21:33:07.348Z,13.90
2019-05-16T21:35:36.295Z,13.90
2019-05-16T21:38:03.387Z,13.80
2019-05-16T21:40:31.363Z,13.80
2019-05-16T21:43:11.843Z,13.80
2019-05-16T21:45:38.888Z,13.80
2019-05-16T21:48:07.400Z,13.80
2019-05-16T21:50:36.716Z,13.80
2019-05-16T21:53:03.196Z,13.80
2019-05-16T21:55:30.138Z,13.80
2019-05-16T21:57:57.566Z,13.70
2019-05-16T22:00:30.515Z,13.70
2019-05-16T22:02:59.245Z,13.70
2019-05-16T22:05:27.573Z,13.70
2019-05-16T22:07:56.644Z,13.70
2019-05-16T22:10:23.132Z,13.70
2019-05-16T22:12:51.751Z,13.60
2019-05-16T22:15:18.591Z,13.60
2019-05-16T22:17:47.360Z,13.60
2019-05-16T22:20:16.554Z,13.50
2019-05-16T22:22:43.794Z,13.50
2019-05-16T22:25:10.730Z,13.40
2019-05-16T22:27:37.585Z,13.40
2019-05-16T22:30:10.591Z,13.40
2019-05-16T22:32:37.531Z,13.40
2019-05-16T22:35:27.458Z,13.40
2019-05-16T22:37:59.255Z,13.30
2019-05-16T22:40:26.676Z,13.30
2019-05-16T22:42:53.395Z,13.30
2019-05-16T22:45:21.859Z,13.30
2019-05-16T22:47:48.699Z,13.30
2019-05-16T22:50:17.678Z,13.30
2019-05-16T22:52:44.303Z,13.20
2019-05-16T22:55:11.109Z,13.20
2019-05-16T22:57:38.060Z,13.20
2019-05-16T23:06:41.833Z,13.00
2019-05-16T23:09:08.766Z,13.00
2019-05-16T23:11:36.361Z,13.00
2019-05-16T23:14:03.569Z,13.00
2019-05-16T23:16:30.720Z,12.90
2019-05-16T23:18:57.667Z,12.80
2019-05-16T23:21:24.485Z,12.80
2019-05-16T23:23:51.554Z,12.70
2019-05-16T23:26:18.510Z,12.60
2019-05-16T23:28:47.142Z,12.60
2019-05-16T23:31:16.473Z,12.60
2019-05-16T23:33:43.228Z,12.50
2019-05-16T23:36:10.095Z,12.50
2019-05-16T23:38:37.222Z,12.50
2019-05-16T23:41:06.367Z,12.50
2019-05-16T23:43:32.875Z,12.40
2019-05-16T23:45:59.835Z,12.40
2019-05-16T23:48:26.771Z,12.40
2019-05-16T23:50:53.623Z,12.30
2019-05-16T23:53:20.735Z,12.30
2019-05-16T23:55:47.885Z,12.20
2019-05-16T23:58:16.033Z,12.20
